Time;durP1;ratioP1;P1;durP2;ratioP2;P2;SDS_P1;SDS_P2;PMS_P1;PMS_P2;Temp;Humidity;BMP_temperature;BMP_pressure;BME280_temperature;BME280_humidity;BME280_pressure;Samples;Min_cycle;Max_cycle;Signal;HPM_P1;HPM_P2
2023/10/12 00:00:40;;;;;;;15.43;2.70;;;;;;;;;;5105424;28;20043;-74
2023/10/12 00:03:07;;;;;;;17.65;3.05;;;;;;;;;;5085493;28;20023;-75
2023/10/12 00:05:34;;;;;;;23.52;2.83;;;;;;;;;;5099751;28;20105;-75
2023/10/12 00:08:08;;;;;;;20.50;2.53;;;;;;;;;;5091778;28;20027;-75
2023/10/12 00:10:41;;;;;;;14.73;2.78;;;;;;;;;;5091956;28;20040;-75
2023/10/12 00:13:11;;;;;;;20.90;2.58;;;;;;;;;;5091929;28;20024;-75
2023/10/12 00:15:41;;;;;;;16.65;3.00;;;;;;;;;;5095114;28;20020;-74
2023/10/12 00:18:10;;;;;;;22.70;2.95;;;;;;;;;;5095774;28;20101;-74
2023/10/12 00:20:37;;;;;;;22.02;2.85;;;;;;;;;;5095948;28;20044;-75
2023/10/12 00:23:10;;;;;;;30.55;3.85;;;;;;;;;;5095957;28;20020;-74
2023/10/12 00:25:54;;;;;;;26.80;4.10;;;;;;;;;;5095883;28;20028;-75
2023/10/12 00:28:21;;;;;;;26.65;3.65;;;;;;;;;;5095813;28;20027;-74
2023/10/12 00:30:49;;;;;;;25.20;3.83;;;;;;;;;;5095896;28;20028;-74
2023/10/12 00:33:17;;;;;;;24.63;4.07;;;;;;;;;;5095581;28;20541;-73
2023/10/12 00:35:48;;;;;;;21.90;3.50;;;;;;;;;;5095737;28;20016;-73
2023/10/12 00:38:18;;;;;;;23.52;3.85;;;;;;;;;;5096290;28;20107;-74
2023/10/12 00:40:55;;;;;;;24.63;3.92;;;;;;;;;;5097123;28;20483;-75
2023/10/12 00:43:22;;;;;;;22.02;3.90;;;;;;;;;;5094292;28;20368;-74
2023/10/12 00:45:49;;;;;;;19.67;3.85;;;;;;;;;;5095639;28;20020;-74
2023/10/12 00:48:16;;;;;;;25.75;3.53;;;;;;;;;;5095310;28;20108;-74
2023/10/12 00:50:45;;;;;;;28.80;4.43;;;;;;;;;;5095578;28;20059;-75
2023/10/12 00:55:45;;;;;;;31.75;4.40;;;;;;;;;;5095656;28;20042;-75
2023/10/12 00:58:14;;;;;;;26.45;3.70;;;;;;;;;;5095186;28;20027;-74
2023/10/12 01:00:51;;;;;;;20.73;3.67;;;;;;;;;;5094009;28;20031;-74
2023/10/12 01:03:35;;;;;;;27.85;3.92;;;;;;;;;;5095273;28;20506;-74
2023/10/12 01:08:43;;;;;;;26.65;3.80;;;;;;;;;;5095538;28;20088;-74
2023/10/12 01:11:26;;;;;;;24.38;4.00;;;;;;;;;;5095134;28;20499;-74
2023/10/12 01:14:11;;;;;;;35.25;4.35;;;;;;;;;;5095263;28;20052;-74
2023/10/12 01:16:54;;;;;;;24.38;4.03;;;;;;;;;;5094891;28;20020;-74
2023/10/12 01:19:23;;;;;;;20.70;3.65;;;;;;;;;;5095043;28;20020;-74
2023/10/12 01:21:56;;;;;;;30.15;4.47;;;;;;;;;;5095032;28;20069;-75
2023/10/12 01:24:31;;;;;;;25.65;3.85;;;;;;;;;;5094887;28;20512;-74
2023/10/12 01:26:58;;;;;;;29.05;3.97;;;;;;;;;;5094526;28;20035;-75
2023/10/12 01:29:25;;;;;;;26.08;4.00;;;;;;;;;;5094666;28;20027;-74
2023/10/12 01:34:37;;;;;;;22.85;3.38;;;;;;;;;;5095189;28;20024;-75
2023/10/12 01:37:08;;;;;;;33.80;3.90;;;;;;;;;;5094676;28;20028;-74
2023/10/12 01:39:39;;;;;;;25.25;3.72;;;;;;;;;;5094403;28;20371;-74
2023/10/12 01:42:06;;;;;;;24.73;3.47;;;;;;;;;;5094346;28;20473;-75
2023/10/12 01:44:32;;;;;;;24.77;3.90;;;;;;;;;;5094230;28;20084;-74
2023/10/12 01:46:58;;;;;;;23.65;3.83;;;;;;;;;;5094099;28;20024;-74
2023/10/12 01:49:25;;;;;;;24.48;3.80;;;;;;;;;;5094075;28;20028;-73
2023/10/12 01:51:51;;;;;;;29.15;3.78;;;;;;;;;;5093987;28;20063;-75
2023/10/12 01:54:24;;;;;;;23.73;3.75;;;;;;;;;;5094334;28;20443;-74
2023/10/12 01:56:55;;;;;;;32.17;4.25;;;;;;;;;;5094311;28;20024;-74
2023/10/12 01:59:25;;;;;;;26.65;3.92;;;;;;;;;;5094151;28;20018;-74
2023/10/12 02:02:07;;;;;;;21.48;4.35;;;;;;;;;;5094127;28;20100;-74
2023/10/12 02:04:39;;;;;;;26.70;3.83;;;;;;;;;;5094655;28;20387;-73
2023/10/12 02:07:05;;;;;;;23.48;3.53;;;;;;;;;;5094546;28;20481;-74
2023/10/12 02:09:34;;;;;;;28.00;3.95;;;;;;;;;;5098947;28;20043;-73
2023/10/12 02:12:11;;;;;;;28.55;3.90;;;;;;;;;;5105741;28;20043;-74
2023/10/12 02:14:39;;;;;;;27.65;4.10;;;;;;;;;;5105518;28;20020;-73
2023/10/12 02:17:06;;;;;;;31.40;4.20;;;;;;;;;;5102759;28;20069;-74
2023/10/12 02:19:55;;;;;;;25.95;3.63;;;;;;;;;;5096645;28;20024;-72
2023/10/12 02:22:19;;;;;;;28.92;4.15;;;;;;;;;;5093535;28;20441;-73
2023/10/12 02:24:51;;;;;;;26.98;3.75;;;;;;;;;;5093923;28;20076;-73
2023/10/12 02:27:18;;;;;;;26.63;3.25;;;;;;;;;;5075389;28;20447;-71
2023/10/12 02:29:49;;;;;;;25.38;3.30;;;;;;;;;;5093382;28;20077;-73
2023/10/12 02:32:16;;;;;;;26.35;3.60;;;;;;;;;;5093484;28;20039;-73
2023/10/12 02:34:43;;;;;;;25.63;3.80;;;;;;;;;;5093475;28;20390;-71
2023/10/12 02:39:42;;;;;;;25.60;4.18;;;;;;;;;;5093831;28;20028;-73
2023/10/12 02:44:51;;;;;;;37.95;4.60;;;;;;;;;;5094645;28;20032;-73
2023/10/12 02:47:23;;;;;;;35.55;7.03;;;;;;;;;;5103048;28;20031;-73
2023/10/12 02:49:49;;;;;;;25.30;3.97;;;;;;;;;;5103133;28;20433;-73
2023/10/12 02:52:16;;;;;;;29.33;4.15;;;;;;;;;;5118997;28;20035;-74
2023/10/12 02:54:51;;;;;;;25.70;4.10;;;;;;;;;;5118568;28;20095;-73
2023/10/12 02:57:37;;;;;;;24.85;4.03;;;;;;;;;;5107891;28;20035;-73
2023/10/12 03:00:13;;;;;;;29.15;4.05;;;;;;;;;;5080591;28;20020;-71
2023/10/12 03:02:41;;;;;;;28.23;4.28;;;;;;;;;;5097807;28;20017;-73
2023/10/12 03:05:07;;;;;;;24.25;3.92;;;;;;;;;;5084944;28;20029;-76
2023/10/12 03:07:37;;;;;;;34.38;4.93;;;;;;;;;;5092620;28;20065;-74
2023/10/12 03:10:17;;;;;;;27.95;4.57;;;;;;;;;;5092171;28;20032;-75
2023/10/12 03:12:44;;;;;;;27.95;4.78;;;;;;;;;;5101692;28;20519;-75
2023/10/12 03:15:13;;;;;;;34.40;4.50;;;;;;;;;;5085510;28;20031;-76
2023/10/12 03:17:45;;;;;;;24.85;4.10;;;;;;;;;;5097057;28;20030;-75
2023/10/12 03:20:29;;;;;;;35.83;4.10;;;;;;;;;;5099166;28;20045;-77
2023/10/12 03:22:59;;;;;;;32.40;4.47;;;;;;;;;;5083303;28;20032;-76
2023/10/12 03:28:35;;;;;;;27.95;4.20;;;;;;;;;;5044209;28;20451;-77
2023/10/12 03:33:46;;;;;;;32.00;4.80;;;;;;;;;;5086295;28;20399;-75
2023/10/12 03:36:25;;;;;;;30.10;3.70;;;;;;;;;;5083059;28;20502;-74
2023/10/12 03:47:15;;;;;;;34.55;3.85;;;;;;;;;;5112559;28;20050;-73
2023/10/12 03:49:57;;;;;;;27.58;4.18;;;;;;;;;;5111746;28;20065;-72
2023/10/12 03:52:39;;;;;;;26.33;3.63;;;;;;;;;;5094099;28;20019;-72
2023/10/12 04:02:39;;;;;;;31.10;4.45;;;;;;;;;;5113260;28;20019;-75
2023/10/12 04:05:34;;;;;;;25.95;3.60;;;;;;;;;;5114051;28;20024;-73
2023/10/12 04:08:00;;;;;;;37.67;4.60;;;;;;;;;;5113950;28;20027;-73
2023/10/12 04:18:42;;;;;;;27.60;3.78;;;;;;;;;;5114803;28;20460;-72
2023/10/12 04:21:18;;;;;;;31.30;5.20;;;;;;;;;;5121615;28;20039;-78
2023/10/12 04:23:47;;;;;;;26.52;3.53;;;;;;;;;;5106823;28;20024;-77
2023/10/12 04:28:55;;;;;;;30.15;3.83;;;;;;;;;;5099221;28;20039;-77
2023/10/12 04:31:27;;;;;;;29.42;3.97;;;;;;;;;;5089505;28;20024;-76
2023/10/12 04:36:44;;;;;;;27.38;4.22;;;;;;;;;;5098259;28;20020;-77
2023/10/12 04:39:16;;;;;;;27.98;3.60;;;;;;;;;;5102459;28;20483;-78
2023/10/12 04:47:12;;;;;;;30.50;4.53;;;;;;;;;;5106990;28;20076;-76
2023/10/12 04:49:59;;;;;;;33.60;5.45;;;;;;;;;;5088826;28;20089;-76
2023/10/12 04:52:32;;;;;;;23.45;3.72;;;;;;;;;;5062906;28;20031;-77
2023/10/12 04:55:20;;;;;;;21.55;3.50;;;;;;;;;;5107396;28;20016;-71
2023/10/12 04:57:44;;;;;;;18.88;3.03;;;;;;;;;;5077181;28;20039;-72
2023/10/12 05:05:15;;;;;;;22.60;3.60;;;;;;;;;;5087132;28;20495;-73
2023/10/12 05:07:53;;;;;;;27.25;3.67;;;;;;;;;;5078356;28;20031;-75
2023/10/12 05:13:04;;;;;;;36.25;7.75;;;;;;;;;;5078428;28;20425;-72
2023/10/12 05:18:25;;;;;;;34.53;5.28;;;;;;;;;;5076348;28;20116;-75
2023/10/12 05:20:52;;;;;;;21.80;3.97;;;;;;;;;;5077869;28;20028;-75
2023/10/12 05:23:18;;;;;;;25.08;3.78;;;;;;;;;;5075808;28;20105;-73
2023/10/12 05:25:53;;;;;;;27.83;3.53;;;;;;;;;;5075320;28;20154;-73
2023/10/12 05:28:21;;;;;;;32.47;4.53;;;;;;;;;;5073959;28;20100;-74
2023/10/12 05:30:55;;;;;;;29.15;3.78;;;;;;;;;;5074218;28;20031;-76
2023/10/12 05:35:59;;;;;;;40.28;6.00;;;;;;;;;;5097924;28;20024;-73
2023/10/12 05:38:35;;;;;;;25.92;4.10;;;;;;;;;;5096956;28;20055;-74
2023/10/12 05:41:02;;;;;;;26.95;4.13;;;;;;;;;;5093834;28;20043;-74
2023/10/12 05:43:33;;;;;;;23.15;3.78;;;;;;;;;;5090564;28;20024;-74
2023/10/12 05:46:10;;;;;;;24.20;4.00;;;;;;;;;;5091118;28;20036;-73
2023/10/12 05:48:46;;;;;;;21.90;3.35;;;;;;;;;;5085335;28;20394;-73
2023/10/12 05:51:19;;;;;;;19.70;3.25;;;;;;;;;;5083718;28;20028;-75
2023/10/12 05:53:45;;;;;;;24.55;3.88;;;;;;;;;;5101825;28;20019;-74
2023/10/12 05:56:12;;;;;;;22.88;3.40;;;;;;;;;;5080102;28;20491;-73
2023/10/12 05:58:38;;;;;;;22.40;3.42;;;;;;;;;;5075742;28;20071;-72
2023/10/12 06:01:17;;;;;;;31.85;3.85;;;;;;;;;;5076154;28;20040;-76
2023/10/12 06:03:46;;;;;;;36.65;3.60;;;;;;;;;;5097960;28;20016;-74
2023/10/12 06:06:15;;;;;;;20.52;3.13;;;;;;;;;;5095825;28;20487;-73
2023/10/12 06:08:41;;;;;;;20.98;3.42;;;;;;;;;;5101267;28;20051;-73
2023/10/12 06:11:08;;;;;;;26.45;3.83;;;;;;;;;;5107969;28;20063;-73
2023/10/12 06:13:42;;;;;;;34.92;5.05;;;;;;;;;;5115652;28;20309;-72
2023/10/12 06:16:14;;;;;;;22.02;4.22;;;;;;;;;;5116123;28;20432;-73
2023/10/12 06:18:44;;;;;;;26.17;3.80;;;;;;;;;;5116938;28;20390;-75
2023/10/12 06:21:10;;;;;;;18.95;2.80;;;;;;;;;;5115849;28;20023;-75
2023/10/12 06:23:39;;;;;;;31.50;4.30;;;;;;;;;;5114196;28;20023;-73
2023/10/12 06:26:09;;;;;;;26.40;3.58;;;;;;;;;;5119557;28;20034;-73
2023/10/12 06:28:38;;;;;;;27.35;3.83;;;;;;;;;;5120034;28;20048;-73
2023/10/12 06:31:04;;;;;;;27.80;3.67;;;;;;;;;;5102853;28;20031;-73
2023/10/12 06:33:30;;;;;;;28.95;3.67;;;;;;;;;;5119741;28;20379;-72
2023/10/12 06:35:59;;;;;;;22.73;3.20;;;;;;;;;;5116036;28;20023;-75
2023/10/12 06:43:57;;;;;;;33.75;5.72;;;;;;;;;;5091525;28;20031;-72
2023/10/12 06:46:27;;;;;;;31.30;4.32;;;;;;;;;;5113195;28;20037;-73
2023/10/12 06:49:00;;;;;;;24.42;3.53;;;;;;;;;;5112823;28;20031;-72
2023/10/12 06:51:28;;;;;;;30.02;3.50;;;;;;;;;;5113262;28;20020;-71
2023/10/12 06:54:06;;;;;;;22.98;3.95;;;;;;;;;;5113753;28;20467;-71
2023/10/12 06:56:38;;;;;;;24.38;3.38;;;;;;;;;;5113177;28;20419;-75
2023/10/12 06:59:13;;;;;;;27.55;4.30;;;;;;;;;;5115224;28;20489;-74
2023/10/12 07:04:16;;;;;;;27.08;4.00;;;;;;;;;;5121443;28;20023;-74
2023/10/12 07:09:50;;;;;;;27.10;3.97;;;;;;;;;;5112475;28;20030;-71
2023/10/12 07:12:18;;;;;;;21.05;3.63;;;;;;;;;;5090011;28;20038;-72
2023/10/12 07:14:47;;;;;;;26.42;4.60;;;;;;;;;;5092580;28;20529;-71
2023/10/12 07:17:14;;;;;;;19.10;3.25;;;;;;;;;;5092816;28;20027;-72
2023/10/12 07:19:42;;;;;;;23.30;4.15;;;;;;;;;;5092336;28;20629;-72
2023/10/12 07:22:15;;;;;;;17.95;3.03;;;;;;;;;;5092786;28;20012;-72
2023/10/12 07:24:42;;;;;;;28.65;3.70;;;;;;;;;;5092232;28;20317;-72
2023/10/12 07:27:11;;;;;;;22.27;3.47;;;;;;;;;;5092421;28;20028;-73
2023/10/12 07:29:39;;;;;;;17.77;2.83;;;;;;;;;;5092225;28;20544;-76
2023/10/12 07:32:24;;;;;;;23.13;3.75;;;;;;;;;;5092424;28;20483;-73
2023/10/12 07:34:58;;;;;;;25.70;4.07;;;;;;;;;;5093373;28;20023;-73
2023/10/12 07:37:27;;;;;;;20.08;2.97;;;;;;;;;;5092719;28;20518;-72
2023/10/12 07:39:56;;;;;;;19.55;3.55;;;;;;;;;;5092745;28;20119;-72
2023/10/12 07:42:28;;;;;;;29.25;3.65;;;;;;;;;;5073711;28;20368;-74
2023/10/12 07:44:54;;;;;;;18.98;2.90;;;;;;;;;;5092113;28;20028;-73
2023/10/12 07:47:31;;;;;;;29.63;3.95;;;;;;;;;;5092253;28;20024;-74
2023/10/12 07:49:57;;;;;;;21.95;3.60;;;;;;;;;;5091591;28;20399;-73
2023/10/12 07:55:29;;;;;;;15.73;3.35;;;;;;;;;;5092584;28;20024;-76
2023/10/12 07:57:56;;;;;;;20.48;3.80;;;;;;;;;;5092259;28;20060;-73
2023/10/12 08:00:34;;;;;;;14.65;3.67;;;;;;;;;;5092368;28;20035;-77
2023/10/12 08:03:17;;;;;;;26.60;3.30;;;;;;;;;;5074407;28;20031;-75
2023/10/12 08:05:44;;;;;;;23.58;3.05;;;;;;;;;;5093126;28;20442;-74
2023/10/12 08:08:33;;;;;;;19.80;3.33;;;;;;;;;;5092437;28;20395;-75
2023/10/12 08:10:59;;;;;;;17.63;3.45;;;;;;;;;;5091950;28;20035;-73
2023/10/12 08:13:26;;;;;;;17.35;2.47;;;;;;;;;;5092310;28;20525;-75
2023/10/12 08:15:56;;;;;;;16.55;2.83;;;;;;;;;;5091791;28;20116;-75
2023/10/12 08:19:22;;;;;;;21.88;4.18;;;;;;;;;;5092011;28;20024;-72
2023/10/12 08:21:42;;;;;;;22.10;3.83;;;;;;;;;;5092444;28;20032;-72
2023/10/12 08:26:35;;;;;;;17.75;3.30;;;;;;;;;;5112525;28;20068;-70
2023/10/12 08:39:37;;;;;;;14.20;2.30;;;;;;;;;;5115799;28;20024;-72
2023/10/12 08:44:51;;;;;;;19.33;3.17;;;;;;;;;;5095895;28;20035;-72
2023/10/12 08:47:26;;;;;;;15.68;2.95;;;;;;;;;;5095267;28;20035;-72
2023/10/12 08:50:05;;;;;;;27.63;3.55;;;;;;;;;;5094771;28;20237;-71
2023/10/12 08:52:34;;;;;;;15.70;3.10;;;;;;;;;;5095062;28;20423;-72
2023/10/12 08:55:11;;;;;;;20.35;3.08;;;;;;;;;;5095092;28;20016;-71
2023/10/12 08:57:43;;;;;;;10.80;2.85;;;;;;;;;;5095138;28;20020;-71
2023/10/12 09:00:38;;;;;;;17.30;3.40;;;;;;;;;;5094529;28;20103;-72
2023/10/12 09:05:51;;;;;;;21.05;3.28;;;;;;;;;;5094869;28;20036;-71
2023/10/12 09:11:19;;;;;;;16.20;3.40;;;;;;;;;;5094870;28;20020;-72
2023/10/12 09:13:37;;;;;;;23.17;2.83;;;;;;;;;;5090996;28;20071;-72
2023/10/12 09:16:05;;;;;;;21.63;2.60;;;;;;;;;;5096660;28;20547;-72
2023/10/12 09:18:42;;;;;;;14.40;2.63;;;;;;;;;;5079467;28;20407;-72
2023/10/12 09:26:47;;;;;;;23.20;2.97;;;;;;;;;;5097154;28;20538;-72
2023/10/12 09:29:23;;;;;;;22.63;3.20;;;;;;;;;;5076539;28;20077;-72
2023/10/12 09:34:43;;;;;;;23.90;3.38;;;;;;;;;;5093558;28;20039;-71
2023/10/12 09:37:16;;;;;;;14.35;2.67;;;;;;;;;;5094448;28;20020;-72
2023/10/12 09:39:42;;;;;;;18.58;2.95;;;;;;;;;;5093171;28;20406;-70
2023/10/12 09:42:09;;;;;;;14.52;2.88;;;;;;;;;;5094003;28;20091;-71
2023/10/12 09:44:39;;;;;;;25.60;3.03;;;;;;;;;;5097112;28;20485;-71
2023/10/12 09:47:15;;;;;;;15.32;2.42;;;;;;;;;;5114208;28;20107;-72
2023/10/12 09:49:47;;;;;;;20.40;3.28;;;;;;;;;;5115251;28;20022;-71
2023/10/12 09:52:14;;;;;;;16.77;2.90;;;;;;;;;;5114467;28;20073;-72
2023/10/12 09:54:45;;;;;;;19.15;3.22;;;;;;;;;;5114754;28;20024;-72
2023/10/12 09:57:25;;;;;;;10.05;2.88;;;;;;;;;;5114404;28;20035;-73
2023/10/12 10:00:00;;;;;;;16.80;2.80;;;;;;;;;;5114058;28;20031;-72
2023/10/12 10:02:33;;;;;;;17.70;3.35;;;;;;;;;;5113952;28;20027;-74
2023/10/12 10:07:36;;;;;;;12.38;3.17;;;;;;;;;;5114935;28;20028;-73
2023/10/12 10:10:08;;;;;;;25.80;3.00;;;;;;;;;;5114458;28;20019;-73
2023/10/12 10:12:42;;;;;;;19.63;2.83;;;;;;;;;;5114231;28;20028;-72
2023/10/12 10:15:16;;;;;;;15.52;4.10;;;;;;;;;;5114090;28;20098;-73
2023/10/12 10:17:47;;;;;;;24.88;3.53;;;;;;;;;;5113864;28;20023;-72
2023/10/12 10:22:56;;;;;;;18.08;3.20;;;;;;;;;;5113623;28;20454;-73
2023/10/12 10:25:27;;;;;;;16.55;3.22;;;;;;;;;;5116042;28;20203;-73
2023/10/12 10:27:56;;;;;;;16.60;3.17;;;;;;;;;;5118641;28;20401;-70
2023/10/12 10:30:25;;;;;;;20.27;3.53;;;;;;;;;;5115006;28;20107;-71
2023/10/12 10:33:12;;;;;;;17.25;2.95;;;;;;;;;;5114008;28;20024;-73
2023/10/12 10:36:10;;;;;;;15.73;2.95;;;;;;;;;;5114022;28;20027;-71
2023/10/12 10:38:39;;;;;;;19.00;3.00;;;;;;;;;;5095017;28;20036;-75
2023/10/12 10:41:07;;;;;;;25.45;3.80;;;;;;;;;;5114706;28;20084;-72
2023/10/12 10:43:39;;;;;;;17.27;3.05;;;;;;;;;;5114126;28;20035;-72
2023/10/12 10:46:06;;;;;;;14.05;2.85;;;;;;;;;;5113773;28;20061;-72
2023/10/12 10:48:39;;;;;;;14.65;2.90;;;;;;;;;;5112695;28;20427;-72
2023/10/12 10:51:11;;;;;;;19.33;2.92;;;;;;;;;;5113083;28;20047;-71
2023/10/12 10:53:38;;;;;;;12.90;2.63;;;;;;;;;;5113300;28;20503;-72
2023/10/12 10:56:14;;;;;;;12.63;3.33;;;;;;;;;;5113280;28;20028;-71
2023/10/12 10:58:40;;;;;;;20.48;2.85;;;;;;;;;;5111989;28;20019;-73
2023/10/12 11:01:09;;;;;;;16.67;3.10;;;;;;;;;;5113532;28;20088;-72
2023/10/12 11:03:35;;;;;;;14.63;2.63;;;;;;;;;;5113572;28;20386;-71
2023/10/12 11:06:01;;;;;;;13.50;3.10;;;;;;;;;;5113277;28;20023;-75
2023/10/12 11:08:27;;;;;;;14.93;3.55;;;;;;;;;;5112793;28;20030;-72
2023/10/12 11:11:25;;;;;;;19.25;3.35;;;;;;;;;;5112857;28;20390;-71
2023/10/12 11:13:44;;;;;;;24.23;3.67;;;;;;;;;;5112331;28;20031;-71
2023/10/12 11:16:45;;;;;;;14.25;3.05;;;;;;;;;;5113189;28;20093;-71
2023/10/12 11:19:03;;;;;;;10.02;2.70;;;;;;;;;;5109433;28;20438;-73
2023/10/12 11:21:29;;;;;;;14.90;2.53;;;;;;;;;;5112674;28;20068;-74
2023/10/12 11:24:03;;;;;;;14.32;3.10;;;;;;;;;;5114220;28;20085;-71
2023/10/12 11:26:29;;;;;;;14.38;3.05;;;;;;;;;;5112710;28;20016;-74
2023/10/12 11:29:03;;;;;;;15.00;2.60;;;;;;;;;;5112678;28;20034;-73
2023/10/12 11:31:32;;;;;;;14.73;2.58;;;;;;;;;;5113191;28;20092;-75
2023/10/12 11:33:58;;;;;;;22.60;3.22;;;;;;;;;;5113220;28;20023;-74
2023/10/12 11:36:24;;;;;;;21.23;3.33;;;;;;;;;;5112826;28;20029;-75
2023/10/12 11:39:00;;;;;;;16.00;3.15;;;;;;;;;;5113386;28;20027;-77
2023/10/12 11:41:27;;;;;;;14.93;2.95;;;;;;;;;;5128223;28;20201;-74
2023/10/12 11:43:56;;;;;;;14.38;2.97;;;;;;;;;;5130156;28;20035;-73
2023/10/12 11:46:26;;;;;;;13.43;2.50;;;;;;;;;;5137730;28;20011;-73
2023/10/12 11:49:05;;;;;;;19.75;2.55;;;;;;;;;;5135709;28;20031;-71
2023/10/12 11:51:31;;;;;;;21.25;3.47;;;;;;;;;;5134834;28;20023;-71
2023/10/12 11:53:58;;;;;;;12.38;2.92;;;;;;;;;;5130835;28;20019;-72
2023/10/12 11:56:25;;;;;;;14.82;2.70;;;;;;;;;;5133868;28;20044;-71
2023/10/12 11:58:54;;;;;;;17.98;3.10;;;;;;;;;;5123151;28;20019;-71
2023/10/12 12:01:21;;;;;;;15.45;2.72;;;;;;;;;;5112209;28;20367;-72
2023/10/12 12:03:48;;;;;;;14.48;2.80;;;;;;;;;;5112112;28;20032;-72
2023/10/12 12:06:21;;;;;;;19.38;3.47;;;;;;;;;;5111724;28;20020;-72
2023/10/12 12:08:47;;;;;;;18.63;3.55;;;;;;;;;;5111429;28;20019;-72
2023/10/12 12:11:15;;;;;;;19.77;3.75;;;;;;;;;;5111405;28;20027;-73
2023/10/12 12:13:47;;;;;;;20.08;3.10;;;;;;;;;;5111471;28;20054;-73
2023/10/12 12:16:19;;;;;;;17.88;3.67;;;;;;;;;;5112630;28;20038;-72
2023/10/12 12:18:48;;;;;;;15.82;3.55;;;;;;;;;;5112126;28;20110;-72
2023/10/12 12:21:15;;;;;;;18.77;3.67;;;;;;;;;;5111703;28;20019;-71
2023/10/12 12:23:42;;;;;;;20.20;3.17;;;;;;;;;;5111728;28;20028;-73
2023/10/12 12:26:09;;;;;;;17.13;3.50;;;;;;;;;;5111009;28;20479;-72
2023/10/12 12:28:43;;;;;;;19.42;2.78;;;;;;;;;;5111023;28;20041;-72
2023/10/12 12:31:15;;;;;;;20.85;3.40;;;;;;;;;;5113566;28;20539;-74
2023/10/12 12:33:43;;;;;;;16.48;3.00;;;;;;;;;;5112850;28;20040;-73
2023/10/12 12:36:13;;;;;;;18.55;2.83;;;;;;;;;;5111453;28;20395;-71
2023/10/12 12:41:19;;;;;;;20.08;2.88;;;;;;;;;;5091210;28;20032;-71
2023/10/12 12:43:49;;;;;;;16.23;2.80;;;;;;;;;;5090610;28;20028;-73
2023/10/12 12:46:16;;;;;;;14.27;3.25;;;;;;;;;;5088972;28;20020;-71
2023/10/12 12:48:45;;;;;;;18.63;2.72;;;;;;;;;;5085762;28;20019;-71
2023/10/12 12:51:15;;;;;;;13.30;2.70;;;;;;;;;;5090259;28;20020;-72
2023/10/12 12:53:42;;;;;;;11.55;2.50;;;;;;;;;;5077459;28;20427;-71
2023/10/12 12:56:10;;;;;;;11.45;2.60;;;;;;;;;;5088149;28;20013;-71
2023/10/12 12:58:37;;;;;;;16.88;3.13;;;;;;;;;;5094132;28;20475;-71
2023/10/12 13:01:03;;;;;;;18.02;3.10;;;;;;;;;;5089999;28;20502;-71
2023/10/12 13:03:29;;;;;;;12.52;2.75;;;;;;;;;;5085595;28;20028;-71
2023/10/12 13:05:55;;;;;;;12.73;3.03;;;;;;;;;;5096444;28;20026;-71
2023/10/12 13:08:22;;;;;;;12.10;2.45;;;;;;;;;;5092925;28;20027;-71
2023/10/12 13:10:48;;;;;;;18.88;2.55;;;;;;;;;;5090333;28;20016;-71
2023/10/12 13:13:14;;;;;;;12.20;2.30;;;;;;;;;;5081479;28;20020;-73
2023/10/12 13:15:47;;;;;;;18.35;3.47;;;;;;;;;;5093394;28;20387;-72
2023/10/12 13:18:16;;;;;;;10.77;2.17;;;;;;;;;;5073460;28;20028;-71
2023/10/12 13:20:49;;;;;;;12.77;2.90;;;;;;;;;;5087170;28;20191;-72
2023/10/12 13:23:18;;;;;;;14.20;2.60;;;;;;;;;;5092914;28;20035;-71
2023/10/12 13:25:44;;;;;;;13.00;2.88;;;;;;;;;;5093640;28;20039;-71
2023/10/12 13:28:10;;;;;;;11.98;2.45;;;;;;;;;;5094571;28;20034;-72
2023/10/12 13:30:37;;;;;;;14.60;2.40;;;;;;;;;;5097015;28;20073;-73
2023/10/12 13:33:05;;;;;;;11.82;2.42;;;;;;;;;;5093959;28;20044;-72
2023/10/12 13:35:31;;;;;;;11.65;2.10;;;;;;;;;;5098473;28;20379;-71
2023/10/12 13:38:05;;;;;;;10.15;2.05;;;;;;;;;;5088121;28;20984;-73
2023/10/12 13:40:31;;;;;;;13.80;2.38;;;;;;;;;;5093001;28;20032;-72
2023/10/12 13:43:07;;;;;;;14.35;2.30;;;;;;;;;;5093381;28;20070;-71
2023/10/12 13:45:33;;;;;;;17.02;2.47;;;;;;;;;;5086876;28;20984;-71
2023/10/12 13:47:59;;;;;;;27.30;13.48;;;;;;;;;;5093801;28;20016;-72
2023/10/12 13:50:25;;;;;;;12.30;2.30;;;;;;;;;;5092824;28;20020;-72
2023/10/12 13:52:53;;;;;;;14.35;2.20;;;;;;;;;;5093550;28;20059;-73
2023/10/12 13:55:19;;;;;;;9.68;2.20;;;;;;;;;;5083319;28;20016;-72
2023/10/12 13:57:55;;;;;;;16.58;2.75;;;;;;;;;;5096801;28;20107;-71
2023/10/12 14:00:33;;;;;;;14.30;2.10;;;;;;;;;;5101288;28;20016;-73
2023/10/12 14:03:10;;;;;;;8.85;2.13;;;;;;;;;;5111522;28;20023;-73
2023/10/12 14:05:40;;;;;;;9.18;2.05;;;;;;;;;;5113364;28;20023;-73
2023/10/12 14:08:08;;;;;;;12.43;2.30;;;;;;;;;;5089233;28;20052;-73
2023/10/12 14:10:38;;;;;;;13.93;2.50;;;;;;;;;;5073318;28;20040;-72
2023/10/12 14:13:04;;;;;;;11.45;2.10;;;;;;;;;;5084221;28;20053;-71
2023/10/12 14:15:30;;;;;;;17.45;2.47;;;;;;;;;;5085653;28;20025;-71
2023/10/12 14:17:56;;;;;;;12.45;2.15;;;;;;;;;;5081168;28;20012;-74
2023/10/12 14:20:29;;;;;;;16.48;2.72;;;;;;;;;;5092057;28;20024;-72
2023/10/12 14:22:57;;;;;;;7.65;2.08;;;;;;;;;;5091657;28;20044;-73
2023/10/12 14:25:27;;;;;;;10.27;2.60;;;;;;;;;;5091620;28;20352;-73
2023/10/12 14:27:54;;;;;;;9.85;2.55;;;;;;;;;;5092583;28;20016;-72
2023/10/12 14:30:22;;;;;;;14.38;2.72;;;;;;;;;;5097847;28;20039;-71
2023/10/12 14:32:49;;;;;;;12.13;2.08;;;;;;;;;;5099037;28;20020;-71
2023/10/12 14:35:15;;;;;;;15.57;2.80;;;;;;;;;;5085916;28;20090;-72
2023/10/12 14:37:41;;;;;;;11.38;2.35;;;;;;;;;;5082647;28;20034;-72
2023/10/12 14:40:10;;;;;;;14.45;2.10;;;;;;;;;;5092806;28;20024;-72
2023/10/12 14:42:39;;;;;;;14.10;2.10;;;;;;;;;;5093275;28;20051;-71
2023/10/12 14:45:07;;;;;;;10.77;2.13;;;;;;;;;;5087458;28;20021;-75
2023/10/12 14:47:35;;;;;;;8.65;1.90;;;;;;;;;;5071507;28;20027;-71
2023/10/12 14:50:03;;;;;;;17.15;2.47;;;;;;;;;;5071489;28;20541;-71
2023/10/12 14:52:38;;;;;;;12.23;2.67;;;;;;;;;;5071298;28;20044;-72
2023/10/12 14:55:05;;;;;;;12.82;2.25;;;;;;;;;;5072510;28;20036;-71
2023/10/12 14:57:31;;;;;;;14.90;1.90;;;;;;;;;;5072305;28;20360;-71
2023/10/12 14:59:57;;;;;;;14.15;2.70;;;;;;;;;;5073055;28;20028;-73
2023/10/12 15:02:25;;;;;;;8.55;2.13;;;;;;;;;;5073408;28;20020;-72
2023/10/12 15:04:51;;;;;;;16.58;5.22;;;;;;;;;;5056669;28;20050;-72
2023/10/12 15:07:17;;;;;;;15.80;2.67;;;;;;;;;;5072946;28;20388;-72
2023/10/12 15:09:48;;;;;;;11.18;2.67;;;;;;;;;;5072963;28;20028;-71
2023/10/12 15:12:14;;;;;;;18.83;6.68;;;;;;;;;;5072605;28;20048;-72
2023/10/12 15:14:41;;;;;;;14.05;2.63;;;;;;;;;;5073629;28;20124;-75
2023/10/12 15:17:07;;;;;;;24.73;8.45;;;;;;;;;;5073215;28;20020;-71
2023/10/12 15:19:33;;;;;;;14.30;2.72;;;;;;;;;;5073789;28;20230;-72
2023/10/12 15:21:59;;;;;;;14.30;2.40;;;;;;;;;;5072530;28;20024;-73
2023/10/12 15:24:26;;;;;;;10.38;2.42;;;;;;;;;;5071901;28;20028;-71
2023/10/12 15:26:52;;;;;;;24.67;3.63;;;;;;;;;;5071801;28;20046;-71
2023/10/12 15:29:19;;;;;;;23.17;4.07;;;;;;;;;;5071311;28;20463;-70
2023/10/12 15:31:45;;;;;;;19.85;3.13;;;;;;;;;;5071272;28;20479;-71
2023/10/12 15:34:13;;;;;;;11.10;2.60;;;;;;;;;;5071539;28;20121;-71
2023/10/12 15:36:39;;;;;;;14.63;2.65;;;;;;;;;;5071439;28;20025;-72
2023/10/12 15:39:14;;;;;;;15.40;2.58;;;;;;;;;;5071418;28;20095;-72
2023/10/12 15:41:40;;;;;;;14.23;2.78;;;;;;;;;;5071515;28;20514;-70
2023/10/12 15:44:08;;;;;;;21.67;3.95;;;;;;;;;;5071006;28;20028;-71
2023/10/12 15:46:34;;;;;;;18.77;4.05;;;;;;;;;;5071651;28;20029;-72
2023/10/12 15:49:01;;;;;;;21.63;4.13;;;;;;;;;;5071547;28;20103;-71
2023/10/12 15:51:28;;;;;;;21.58;3.40;;;;;;;;;;5071630;28;20032;-71
2023/10/12 15:53:54;;;;;;;14.15;3.00;;;;;;;;;;5071651;28;20503;-74
2023/10/12 15:56:20;;;;;;;15.90;2.85;;;;;;;;;;5071626;28;20021;-72
2023/10/12 15:58:48;;;;;;;21.77;2.78;;;;;;;;;;5070685;28;20510;-71
2023/10/12 16:01:17;;;;;;;25.77;3.00;;;;;;;;;;5089278;28;20052;-73
2023/10/12 16:03:43;;;;;;;16.25;2.95;;;;;;;;;;5091842;28;20016;-74
2023/10/12 16:06:11;;;;;;;21.95;2.95;;;;;;;;;;5094469;28;20495;-72
2023/10/12 16:08:37;;;;;;;18.40;3.30;;;;;;;;;;5085965;28;20029;-70
2023/10/12 16:11:03;;;;;;;19.48;2.90;;;;;;;;;;5091552;28;20390;-72
2023/10/12 16:13:29;;;;;;;17.27;2.85;;;;;;;;;;5089420;28;20048;-72
2023/10/12 16:15:55;;;;;;;19.90;2.90;;;;;;;;;;5084661;28;20051;-72
2023/10/12 16:18:22;;;;;;;25.60;3.33;;;;;;;;;;5100000;28;20095;-72
2023/10/12 16:20:48;;;;;;;18.27;4.07;;;;;;;;;;5098469;28;20152;-71
2023/10/12 16:23:15;;;;;;;17.60;3.20;;;;;;;;;;5083136;28;20696;-71
2023/10/12 16:25:42;;;;;;;14.18;3.35;;;;;;;;;;5092746;28;20024;-72
2023/10/12 16:28:08;;;;;;;15.82;3.38;;;;;;;;;;5093558;28;20501;-71
2023/10/12 16:30:37;;;;;;;15.07;3.55;;;;;;;;;;5084163;28;20051;-71
2023/10/12 16:33:05;;;;;;;19.55;4.68;;;;;;;;;;5093181;28;20032;-72
2023/10/12 16:35:31;;;;;;;22.75;5.22;;;;;;;;;;5092103;28;20024;-71
2023/10/12 16:38:00;;;;;;;25.70;4.47;;;;;;;;;;5092186;28;20070;-73
2023/10/12 16:40:28;;;;;;;17.92;3.60;;;;;;;;;;5089972;28;20020;-72
2023/10/12 16:42:54;;;;;;;17.15;3.28;;;;;;;;;;5073609;28;20028;-72
2023/10/12 16:45:22;;;;;;;22.50;4.10;;;;;;;;;;5092393;28;20032;-72
2023/10/12 16:47:48;;;;;;;27.00;3.90;;;;;;;;;;5084751;28;20074;-71